createdAt,value
2022-10-26T00:01:36.849Z,8.70
2022-10-26T00:04:03.979Z,8.65
2022-10-26T00:06:30.992Z,8.68
2022-10-26T00:08:58.219Z,8.72
2022-10-26T00:11:25.231Z,8.82
2022-10-26T00:13:52.309Z,8.81
2022-10-26T00:16:23.646Z,8.82
2022-10-26T00:18:50.644Z,8.77
2022-10-26T00:21:17.622Z,8.78
2022-10-26T00:23:44.700Z,8.75
2022-10-26T00:26:12.204Z,8.74
2022-10-26T00:28:39.593Z,8.68
2022-10-26T00:31:07.978Z,8.58
2022-10-26T00:33:35.470Z,8.60
2022-10-26T00:36:02.673Z,8.46
2022-10-26T00:38:29.884Z,8.38
2022-10-26T00:43:26.101Z,8.21
2022-10-26T00:45:54.888Z,8.19
2022-10-26T00:48:26.672Z,8.15
2022-10-26T00:50:54.262Z,8.09
2022-10-26T00:53:21.333Z,8.09
2022-10-26T00:55:49.869Z,8.02
2022-10-26T00:58:17.049Z,8.05
2022-10-26T01:00:44.635Z,8.02
2022-10-26T01:03:12.046Z,8.07
2022-10-26T01:05:42.174Z,8.01
2022-10-26T01:08:09.542Z,7.98
2022-10-26T01:10:40.270Z,7.94
2022-10-26T01:13:07.608Z,7.98
2022-10-26T01:15:42.726Z,7.91
2022-10-26T01:18:23.099Z,7.97
2022-10-26T01:20:55.938Z,7.88
2022-10-26T01:23:41.655Z,7.85
2022-10-26T01:26:18.020Z,7.89
2022-10-26T01:28:44.914Z,7.94
2022-10-26T01:31:15.818Z,7.93
2022-10-26T01:33:46.951Z,7.93
2022-10-26T01:36:18.315Z,7.95
2022-10-26T01:38:54.229Z,7.91
2022-10-26T01:41:24.271Z,7.98
2022-10-26T01:43:55.185Z,7.96
2022-10-26T01:46:23.999Z,7.94
2022-10-26T01:48:53.754Z,7.95
2022-10-26T01:51:21.598Z,7.89
2022-10-26T01:53:48.659Z,7.87
2022-10-26T01:56:21.238Z,7.80
2022-10-26T01:58:55.968Z,7.72
2022-10-26T02:01:42.556Z,7.73
2022-10-26T02:04:09.750Z,7.65
2022-10-26T02:06:43.496Z,7.62
2022-10-26T02:09:23.664Z,7.57
2022-10-26T02:11:53.059Z,7.55
2022-10-26T02:14:29.124Z,7.56
2022-10-26T02:16:56.572Z,7.56
2022-10-26T02:19:40.864Z,7.53
2022-10-26T02:22:13.924Z,7.55
2022-10-26T02:24:41.330Z,7.49
2022-10-26T02:27:09.909Z,7.48
2022-10-26T02:29:37.965Z,7.49
2022-10-26T02:32:06.840Z,7.57
2022-10-26T02:34:36.568Z,7.62
2022-10-26T02:37:04.647Z,7.74
2022-10-26T02:39:33.641Z,7.76
2022-10-26T02:42:03.587Z,7.91
2022-10-26T02:44:32.810Z,7.86
2022-10-26T02:47:08.953Z,7.82
2022-10-26T02:49:36.020Z,7.75
2022-10-26T02:52:08.301Z,7.74
2022-10-26T02:54:58.854Z,7.84
2022-10-26T02:57:29.179Z,7.76
2022-10-26T02:59:57.053Z,7.72
2022-10-26T03:02:24.722Z,7.67
2022-10-26T03:04:52.366Z,7.65
2022-10-26T03:07:25.825Z,7.60
2022-10-26T03:09:52.975Z,7.56
2022-10-26T03:12:20.682Z,7.53
2022-10-26T03:14:47.835Z,7.47
2022-10-26T03:17:14.823Z,7.47
2022-10-26T03:19:41.919Z,7.50
2022-10-26T03:22:08.899Z,7.53
2022-10-26T03:24:36.750Z,7.45
2022-10-26T03:27:03.690Z,7.36
2022-10-26T03:29:30.645Z,7.34
2022-10-26T03:31:57.645Z,7.34
2022-10-26T03:34:24.606Z,7.31
2022-10-26T03:36:51.555Z,7.38
2022-10-26T03:39:18.557Z,7.43
2022-10-26T03:41:45.703Z,7.49
2022-10-26T03:44:12.723Z,7.42
2022-10-26T03:46:39.856Z,7.43
2022-10-26T03:49:06.844Z,7.43
2022-10-26T03:51:34.011Z,7.39
2022-10-26T03:54:01.077Z,7.34
2022-10-26T03:56:28.120Z,7.19
2022-10-26T03:58:55.178Z,7.17
2022-10-26T04:01:22.665Z,7.12
2022-10-26T04:03:49.835Z,7.04
2022-10-26T04:06:16.900Z,6.98
2022-10-26T04:08:43.926Z,7.05
2022-10-26T04:11:11.001Z,7.06
2022-10-26T04:13:37.997Z,7.07
2022-10-26T04:16:05.175Z,7.04
2022-10-26T04:18:32.242Z,7.05
2022-10-26T04:21:02.708Z,7.08
2022-10-26T04:23:29.773Z,6.96
2022-10-26T04:25:56.759Z,6.91
2022-10-26T04:28:24.426Z,6.91
2022-10-26T04:30:51.399Z,6.86
2022-10-26T04:33:18.530Z,6.84
2022-10-26T04:35:46.341Z,6.80
2022-10-26T04:38:13.941Z,6.74
2022-10-26T04:40:40.877Z,6.76
2022-10-26T04:43:07.989Z,6.75
2022-10-26T04:45:35.077Z,6.78
2022-10-26T04:48:03.937Z,6.84
2022-10-26T04:50:31.171Z,6.80
2022-10-26T04:52:58.432Z,6.79
2022-10-26T04:55:25.605Z,6.78
2022-10-26T04:57:55.919Z,6.88
2022-10-26T05:00:25.665Z,6.86
2022-10-26T05:02:52.949Z,6.80
2022-10-26T05:05:20.076Z,6.75
2022-10-26T05:07:53.470Z,6.66
2022-10-26T05:10:20.483Z,6.60
2022-10-26T05:12:54.491Z,6.59
2022-10-26T05:15:21.629Z,6.57
2022-10-26T05:17:55.148Z,6.59
2022-10-26T05:20:28.906Z,6.66
2022-10-26T05:22:56.821Z,6.58
2022-10-26T05:25:24.025Z,6.53
2022-10-26T05:27:51.116Z,6.42
2022-10-26T05:30:18.344Z,6.35
2022-10-26T05:32:45.539Z,6.34
2022-10-26T05:35:12.531Z,6.35
2022-10-26T05:37:39.673Z,6.35
2022-10-26T05:40:07.072Z,6.32
2022-10-26T05:42:37.959Z,6.29
2022-10-26T05:45:05.490Z,6.29
2022-10-26T05:47:33.093Z,6.26
2022-10-26T05:50:00.096Z,6.28
2022-10-26T05:52:27.082Z,6.33
2022-10-26T05:54:54.112Z,6.38
2022-10-26T05:57:21.301Z,6.35
2022-10-26T05:59:48.490Z,6.35
2022-10-26T06:02:15.756Z,6.30
2022-10-26T06:04:47.914Z,6.27
2022-10-26T06:07:16.719Z,6.20
2022-10-26T06:09:44.088Z,6.23
2022-10-26T06:12:13.475Z,6.21
2022-10-26T06:14:42.732Z,6.21
2022-10-26T06:17:16.099Z,6.18
2022-10-26T06:19:54.752Z,6.14
2022-10-26T06:22:44.203Z,6.10
2022-10-26T06:25:14.196Z,6.05
2022-10-26T06:28:07.819Z,6.06
2022-10-26T06:30:34.976Z,6.05
2022-10-26T06:33:17.689Z,6.07
2022-10-26T06:35:52.113Z,6.10
2022-10-26T06:38:20.926Z,6.15
2022-10-26T06:40:49.987Z,6.23
2022-10-26T06:43:25.747Z,6.33
2022-10-26T06:46:16.000Z,6.50
2022-10-26T06:48:50.095Z,6.65
2022-10-26T06:51:17.346Z,6.77
2022-10-26T06:53:51.719Z,6.81
2022-10-26T06:56:19.478Z,6.81
2022-10-26T06:58:48.671Z,6.92
2022-10-26T07:01:16.072Z,6.98
2022-10-26T07:03:43.770Z,7.06
2022-10-26T07:06:11.113Z,7.02
2022-10-26T07:08:38.151Z,6.97
2022-10-26T07:11:05.839Z,6.96
2022-10-26T07:13:32.883Z,7.06
2022-10-26T07:16:00.950Z,7.10
2022-10-26T07:18:28.001Z,7.14
2022-10-26T07:20:55.080Z,7.25
2022-10-26T07:23:23.547Z,7.23
2022-10-26T07:25:50.755Z,7.28
2022-10-26T07:28:17.803Z,7.38
2022-10-26T07:30:44.805Z,7.52
2022-10-26T07:33:13.105Z,7.53
2022-10-26T07:35:40.614Z,7.63
2022-10-26T07:38:08.458Z,7.83
2022-10-26T07:40:36.520Z,7.94
2022-10-26T07:43:03.957Z,7.89
2022-10-26T07:45:30.996Z,7.98
2022-10-26T07:47:58.085Z,8.05
2022-10-26T07:50:25.257Z,8.01
2022-10-26T07:52:52.651Z,8.03
2022-10-26T07:55:20.612Z,8.28
2022-10-26T07:57:51.010Z,8.51
2022-10-26T08:00:21.796Z,8.74
2022-10-26T08:02:48.915Z,9.22
2022-10-26T08:05:15.974Z,9.21
2022-10-26T08:07:44.281Z,9.39
2022-10-26T08:10:11.957Z,9.19
2022-10-26T08:12:39.015Z,9.03
2022-10-26T08:15:06.503Z,8.81
2022-10-26T08:17:35.893Z,8.62
2022-10-26T08:20:02.961Z,8.57
2022-10-26T08:22:32.930Z,8.66
2022-10-26T08:25:00.430Z,8.86
2022-10-26T08:27:27.505Z,9.06
2022-10-26T08:29:57.398Z,9.21
2022-10-26T08:32:24.452Z,9.44
2022-10-26T08:34:51.509Z,9.75
2022-10-26T08:37:18.553Z,10.06
2022-10-26T08:39:48.135Z,10.28
2022-10-26T08:42:22.632Z,10.40
2022-10-26T08:44:51.490Z,10.79
2022-10-26T08:47:21.395Z,11.35
2022-10-26T08:49:48.545Z,11.96
2022-10-26T08:52:17.875Z,12.34
2022-10-26T08:54:51.861Z,13.08
2022-10-26T09:05:44.064Z,13.76
2022-10-26T09:08:29.871Z,13.61
2022-10-26T09:11:08.555Z,13.25
2022-10-26T09:13:35.588Z,13.76
2022-10-26T09:16:06.823Z,14.06
2022-10-26T09:21:25.468Z,14.44
2022-10-26T09:24:00.164Z,14.15
2022-10-26T09:26:36.370Z,14.15
2022-10-26T09:29:05.407Z,14.26
2022-10-26T09:31:43.144Z,14.09
2022-10-26T09:34:16.661Z,13.78
2022-10-26T09:36:43.778Z,13.68
2022-10-26T09:39:16.220Z,13.68
2022-10-26T09:41:51.919Z,13.49
2022-10-26T09:44:39.699Z,13.38
2022-10-26T09:47:14.568Z,13.34
2022-10-26T09:49:48.930Z,13.30
2022-10-26T09:52:16.434Z,13.28
2022-10-26T09:54:43.718Z,13.43
2022-10-26T09:57:14.826Z,13.58
2022-10-26T09:59:42.110Z,13.79
2022-10-26T10:02:37.070Z,13.77
2022-10-26T10:05:27.503Z,13.79
2022-10-26T10:08:20.596Z,13.89
2022-10-26T10:10:55.210Z,13.89
2022-10-26T10:13:23.542Z,13.96
2022-10-26T10:15:55.281Z,14.14
2022-10-26T10:18:23.307Z,14.22
2022-10-26T10:21:25.524Z,14.25
2022-10-26T10:23:53.390Z,14.24
2022-10-26T10:26:20.880Z,14.34
2022-10-26T10:28:57.167Z,14.47
2022-10-26T10:31:31.999Z,14.53
2022-10-26T10:33:59.530Z,14.77
2022-10-26T10:36:29.754Z,14.98
2022-10-26T10:38:57.160Z,14.67
2022-10-26T10:41:32.671Z,14.74
2022-10-26T10:44:05.654Z,14.92
2022-10-26T10:46:33.310Z,14.96
2022-10-26T10:49:16.284Z,15.06
2022-10-26T10:51:44.226Z,15.28
2022-10-26T10:54:37.220Z,15.49
2022-10-26T10:57:07.309Z,15.58
2022-10-26T10:59:45.145Z,15.76
2022-10-26T11:02:18.450Z,15.83
2022-10-26T11:04:48.277Z,15.94
2022-10-26T11:07:18.273Z,15.90
2022-10-26T11:09:47.119Z,15.86
2022-10-26T11:12:16.634Z,15.93
2022-10-26T11:14:48.853Z,15.95
2022-10-26T11:17:16.798Z,16.00
2022-10-26T11:19:47.578Z,16.14
2022-10-26T11:22:17.135Z,16.30
2022-10-26T11:24:46.689Z,16.46
2022-10-26T11:27:24.169Z,16.58
2022-10-26T11:29:56.987Z,16.74
2022-10-26T11:32:27.710Z,16.73
2022-10-26T11:34:57.569Z,16.76
2022-10-26T11:37:37.642Z,16.72
2022-10-26T11:40:04.808Z,16.73
2022-10-26T11:42:55.822Z,16.79
2022-10-26T11:45:25.345Z,16.87
2022-10-26T11:48:01.026Z,17.05
2022-10-26T11:50:33.699Z,17.10
2022-10-26T11:53:02.391Z,17.24
2022-10-26T11:55:29.932Z,17.34
2022-10-26T11:57:58.103Z,17.34
2022-10-26T12:00:26.847Z,17.48
2022-10-26T12:03:08.320Z,17.43
2022-10-26T12:05:48.349Z,17.50
2022-10-26T12:08:27.783Z,17.51
2022-10-26T12:10:58.078Z,17.42
2022-10-26T12:13:38.409Z,17.46
2022-10-26T12:16:11.549Z,17.58
2022-10-26T12:18:56.012Z,17.60
2022-10-26T12:21:31.185Z,17.54
2022-10-26T12:23:59.929Z,17.45
2022-10-26T12:26:27.050Z,17.46
2022-10-26T12:29:03.465Z,17.38
2022-10-26T12:31:36.556Z,17.28
2022-10-26T12:34:11.632Z,17.14
2022-10-26T12:37:11.647Z,17.10
2022-10-26T12:39:40.512Z,17.20
2022-10-26T12:42:10.989Z,17.06
2022-10-26T12:44:42.846Z,17.05
2022-10-26T12:47:10.937Z,17.09
2022-10-26T12:49:56.622Z,17.04
2022-10-26T12:52:29.029Z,17.03
2022-10-26T12:55:05.881Z,16.93
2022-10-26T12:58:08.671Z,16.94
2022-10-26T13:00:40.071Z,16.85
2022-10-26T13:03:16.158Z,16.71
2022-10-26T13:05:58.379Z,16.62
2022-10-26T13:08:25.524Z,16.52
2022-10-26T13:11:03.945Z,16.57
2022-10-26T13:13:31.925Z,16.57
2022-10-26T13:16:00.852Z,16.55
2022-10-26T13:18:28.269Z,16.46
2022-10-26T13:21:04.269Z,16.48
2022-10-26T13:23:33.237Z,16.43
2022-10-26T13:26:04.903Z,16.42
2022-10-26T13:28:37.963Z,16.45
2022-10-26T13:31:05.982Z,16.45
2022-10-26T13:33:41.849Z,16.47
2022-10-26T13:36:22.101Z,16.56
2022-10-26T13:38:49.652Z,16.77
2022-10-26T13:41:25.925Z,16.79
2022-10-26T13:43:53.111Z,16.85
2022-10-26T13:46:23.354Z,16.81
2022-10-26T13:48:52.088Z,16.78
2022-10-26T13:51:24.757Z,16.76
2022-10-26T13:53:54.591Z,16.71
2022-10-26T13:56:21.920Z,16.75
2022-10-26T13:58:50.898Z,16.68
2022-10-26T14:01:21.850Z,16.67
2022-10-26T14:03:49.839Z,16.54
2022-10-26T14:06:26.378Z,16.50
2022-10-26T14:08:56.256Z,16.43
2022-10-26T14:11:28.133Z,16.33
2022-10-26T14:13:55.339Z,16.26
2022-10-26T14:16:25.581Z,16.29
2022-10-26T14:18:52.659Z,16.36
2022-10-26T14:21:21.553Z,16.41
2022-10-26T14:23:56.170Z,16.37
2022-10-26T14:26:27.523Z,16.35
2022-10-26T14:28:56.344Z,16.34
2022-10-26T14:31:25.357Z,16.34
2022-10-26T14:33:52.866Z,16.39
2022-10-26T14:36:21.917Z,16.52
2022-10-26T14:38:51.934Z,16.68
2022-10-26T14:41:20.210Z,16.65
2022-10-26T14:43:47.641Z,16.63
2022-10-26T14:46:16.591Z,16.67
2022-10-26T14:48:53.592Z,16.61
2022-10-26T14:51:22.138Z,16.54
2022-10-26T14:53:51.111Z,16.50
2022-10-26T14:56:22.018Z,16.44
2022-10-26T14:58:49.532Z,16.37
2022-10-26T15:01:22.634Z,16.33
2022-10-26T15:03:52.894Z,16.23
2022-10-26T15:06:30.275Z,16.18
2022-10-26T15:08:59.194Z,16.11
2022-10-26T15:11:27.620Z,16.01
2022-10-26T15:13:55.768Z,15.90
2022-10-26T15:16:25.023Z,15.94
2022-10-26T15:18:55.033Z,15.77
2022-10-26T15:21:26.666Z,15.70
2022-10-26T15:23:54.717Z,15.50
2022-10-26T15:26:22.003Z,15.32
2022-10-26T15:28:50.041Z,15.23
2022-10-26T15:31:17.292Z,15.04
2022-10-26T15:34:05.230Z,14.94
2022-10-26T15:36:33.125Z,14.80
2022-10-26T15:39:00.463Z,14.69
2022-10-26T15:41:32.386Z,14.57
2022-10-26T15:44:21.585Z,14.50
2022-10-26T15:47:03.884Z,14.55
2022-10-26T15:49:34.578Z,14.41
2022-10-26T15:52:01.727Z,14.33
2022-10-26T15:54:29.344Z,14.29
2022-10-26T15:56:57.560Z,14.30
2022-10-26T15:59:24.659Z,14.30
2022-10-26T16:01:53.498Z,14.25
2022-10-26T16:04:21.236Z,14.17
2022-10-26T16:06:48.484Z,14.16
2022-10-26T16:09:17.929Z,14.10
2022-10-26T16:11:46.606Z,14.05
2022-10-26T16:14:14.049Z,13.92
2022-10-26T16:16:42.137Z,13.86
2022-10-26T16:19:29.962Z,13.85
2022-10-26T16:21:58.415Z,13.74
2022-10-26T16:24:26.544Z,13.73
2022-10-26T16:26:55.360Z,13.62
2022-10-26T16:29:22.536Z,13.55
2022-10-26T16:31:49.947Z,13.51
2022-10-26T16:34:17.536Z,13.46
2022-10-26T16:36:44.873Z,13.38
2022-10-26T16:39:12.381Z,13.37
2022-10-26T16:41:39.864Z,13.40
2022-10-26T16:44:08.708Z,13.42
2022-10-26T16:46:35.877Z,13.31
2022-10-26T16:49:02.989Z,13.28
2022-10-26T16:51:36.398Z,13.16
2022-10-26T16:54:04.125Z,13.04
2022-10-26T16:56:31.415Z,13.02
2022-10-26T16:58:58.608Z,12.98
2022-10-26T17:01:26.355Z,12.97
2022-10-26T17:03:53.728Z,12.93
2022-10-26T17:06:21.976Z,12.89
2022-10-26T17:08:49.089Z,12.81
2022-10-26T17:11:17.553Z,12.82
2022-10-26T17:13:45.405Z,12.77
2022-10-26T17:16:17.013Z,12.76
2022-10-26T17:18:44.546Z,12.72
2022-10-26T17:21:13.512Z,12.68
2022-10-26T17:23:41.523Z,12.70
2022-10-26T17:26:11.077Z,12.62
2022-10-26T17:28:38.832Z,12.61
2022-10-26T17:31:15.372Z,12.55
2022-10-26T17:33:44.867Z,12.53
2022-10-26T17:36:13.827Z,12.53
2022-10-26T17:38:42.126Z,12.50
2022-10-26T17:41:10.279Z,12.45
2022-10-26T17:43:38.175Z,12.51
2022-10-26T17:46:06.774Z,12.62
2022-10-26T17:48:34.243Z,12.60
2022-10-26T17:51:02.514Z,12.51
2022-10-26T17:53:29.823Z,12.50
2022-10-26T17:56:03.602Z,12.44
2022-10-26T17:58:32.081Z,12.43
2022-10-26T18:01:05.821Z,12.45
2022-10-26T18:03:35.170Z,12.43
2022-10-26T18:06:02.483Z,12.33
2022-10-26T18:08:34.656Z,12.40
2022-10-26T18:11:02.067Z,12.35
2022-10-26T18:13:31.459Z,12.30
2022-10-26T18:16:11.885Z,12.23
2022-10-26T18:18:40.182Z,12.20
2022-10-26T18:21:08.710Z,12.17
2022-10-26T18:23:38.338Z,12.17
2022-10-26T18:26:14.251Z,12.23
2022-10-26T18:28:41.582Z,12.20
2022-10-26T18:31:10.420Z,12.15
2022-10-26T18:33:39.739Z,12.12
2022-10-26T18:36:08.074Z,12.07
2022-10-26T18:38:35.421Z,12.18
2022-10-26T18:41:02.789Z,12.15
2022-10-26T18:43:30.001Z,12.07
2022-10-26T18:46:10.382Z,12.20
2022-10-26T18:48:38.851Z,12.02
2022-10-26T18:51:13.266Z,12.06
2022-10-26T18:53:41.951Z,12.07
2022-10-26T18:56:10.724Z,12.02
2022-10-26T18:58:38.941Z,11.98
2022-10-26T19:01:19.414Z,12.05
2022-10-26T19:03:47.171Z,12.02
2022-10-26T19:06:15.766Z,11.95
2022-10-26T19:08:43.428Z,12.04
2022-10-26T19:11:11.844Z,11.90
2022-10-26T19:13:39.262Z,11.87
2022-10-26T19:16:12.732Z,11.95
2022-10-26T19:18:56.857Z,11.98
2022-10-26T19:21:24.448Z,11.80
2022-10-26T19:23:52.511Z,11.68
2022-10-26T19:26:21.432Z,11.76
2022-10-26T19:28:55.169Z,11.76
2022-10-26T19:31:26.957Z,11.67
2022-10-26T19:33:56.549Z,11.67
2022-10-26T19:36:23.841Z,11.62
2022-10-26T19:38:50.984Z,11.64
2022-10-26T19:41:18.122Z,11.53
2022-10-26T19:43:45.558Z,11.54
2022-10-26T19:46:21.722Z,11.52
2022-10-26T19:48:49.914Z,11.37
2022-10-26T19:51:17.391Z,11.44
2022-10-26T19:53:45.100Z,11.42
2022-10-26T19:56:13.486Z,11.37
2022-10-26T19:58:41.596Z,11.44
2022-10-26T20:01:09.330Z,11.37
2022-10-26T20:03:36.907Z,11.48
2022-10-26T20:06:11.262Z,11.63
2022-10-26T20:08:39.173Z,11.50
2022-10-26T20:11:09.037Z,11.64
2022-10-26T20:13:39.592Z,11.62
2022-10-26T20:16:08.004Z,11.63
2022-10-26T20:18:35.418Z,11.65
2022-10-26T20:21:06.336Z,11.71
2022-10-26T20:23:33.378Z,11.73
2022-10-26T20:26:03.083Z,11.73
2022-10-26T20:28:30.812Z,11.67
2022-10-26T20:30:59.467Z,11.67
2022-10-26T20:33:27.056Z,11.73
2022-10-26T20:36:00.170Z,11.79
2022-10-26T20:38:27.631Z,12.01
2022-10-26T20:40:56.137Z,11.95
2022-10-26T20:43:23.545Z,11.80
2022-10-26T20:45:51.280Z,11.81
2022-10-26T20:48:19.167Z,11.76
2022-10-26T20:50:59.895Z,11.78
2022-10-26T20:53:29.740Z,11.79
2022-10-26T20:55:58.368Z,11.99
2022-10-26T20:58:40.078Z,12.39
2022-10-26T21:01:27.801Z,12.30
2022-10-26T21:03:55.844Z,12.10
2022-10-26T21:06:52.012Z,11.98
2022-10-26T21:09:23.655Z,12.07
2022-10-26T21:11:50.909Z,12.09
2022-10-26T21:14:17.910Z,12.08
2022-10-26T21:16:45.827Z,12.00
2022-10-26T21:19:15.539Z,11.89
2022-10-26T21:21:42.746Z,11.92
2022-10-26T21:24:09.819Z,11.93
2022-10-26T21:26:36.884Z,11.94
2022-10-26T21:29:04.203Z,12.11
2022-10-26T21:31:31.239Z,12.20
2022-10-26T21:33:58.336Z,12.30
2022-10-26T21:36:25.433Z,12.48
2022-10-26T21:38:52.536Z,12.47
2022-10-26T21:41:20.604Z,12.43
2022-10-26T21:43:48.932Z,12.68
2022-10-26T21:46:16.927Z,12.58
2022-10-26T21:48:44.535Z,12.60
2022-10-26T21:51:13.295Z,12.67
2022-10-26T21:53:40.935Z,12.65
2022-10-26T21:56:16.984Z,12.53
2022-10-26T21:58:46.167Z,12.45
2022-10-26T22:01:15.123Z,12.37
2022-10-26T22:03:42.848Z,12.32
2022-10-26T22:06:12.587Z,12.33
2022-10-26T22:08:39.834Z,12.21
2022-10-26T22:11:08.589Z,12.26
2022-10-26T22:13:37.821Z,12.38
2022-10-26T22:16:06.101Z,12.28
2022-10-26T22:18:36.812Z,12.21
2022-10-26T22:21:04.353Z,12.14
2022-10-26T22:23:38.789Z,12.06
2022-10-26T22:26:09.621Z,12.08
2022-10-26T22:28:40.081Z,12.10
2022-10-26T22:31:15.003Z,12.09
2022-10-26T22:33:42.399Z,12.09
2022-10-26T22:36:10.774Z,12.07
2022-10-26T22:38:38.365Z,12.05
2022-10-26T22:41:05.961Z,12.06
2022-10-26T22:43:33.142Z,12.04
2022-10-26T22:46:04.493Z,12.15
2022-10-26T22:48:32.326Z,12.13
2022-10-26T22:50:59.428Z,12.09
2022-10-26T22:53:26.490Z,11.97
2022-10-26T22:55:53.574Z,11.93
2022-10-26T22:58:20.836Z,11.97
2022-10-26T23:00:47.997Z,11.90
2022-10-26T23:03:15.105Z,11.86
2022-10-26T23:05:46.663Z,11.89
2022-10-26T23:08:14.017Z,11.80
2022-10-26T23:10:41.303Z,11.78
2022-10-26T23:13:08.414Z,11.82
2022-10-26T23:15:35.476Z,11.83
2022-10-26T23:18:02.538Z,11.83
2022-10-26T23:20:32.426Z,11.99
2022-10-26T23:23:02.650Z,12.10
2022-10-26T23:25:34.050Z,12.23
2022-10-26T23:28:05.560Z,12.37
2022-10-26T23:30:33.771Z,12.45
2022-10-26T23:33:00.838Z,12.55
2022-10-26T23:35:28.044Z,12.57
2022-10-26T23:37:58.791Z,12.62
2022-10-26T23:40:26.463Z,12.65
2022-10-26T23:42:53.824Z,12.73
2022-10-26T23:45:21.330Z,12.75
2022-10-26T23:47:49.027Z,12.80
2022-10-26T23:50:16.812Z,12.77
2022-10-26T23:52:48.503Z,12.83
2022-10-26T23:55:16.467Z,12.79
2022-10-26T23:57:43.594Z,12.79
